sensor_id;sensor_type;location;lat;lon;timestamp;pressure;altitude;pressure_sealevel;temperature;humidity
13420;BME280;6781;58.440;15.470;2023-03-15T00:01:58;99410.78;;;-1.27;100.00
13420;BME280;6781;58.440;15.470;2023-03-15T00:04:27;99286.19;;;-2.11;100.00
13420;BME280;6781;58.440;15.470;2023-03-15T00:06:57;99268.63;;;-2.33;100.00
13420;BME280;6781;58.440;15.470;2023-03-15T00:09:24;99265.09;;;-2.30;100.00
13420;BME280;6781;58.440;15.470;2023-03-15T00:11:54;99177.50;;;-2.90;100.00
13420;BME280;6781;58.440;15.470;2023-03-15T00:14:21;99467.59;;;-1.28;100.00
13420;BME280;6781;58.440;15.470;2023-03-15T00:16:49;99303.63;;;-2.22;100.00
13420;BME280;6781;58.440;15.470;2023-03-15T00:19:16;99456.00;;;-1.34;100.00
13420;BME280;6781;58.440;15.470;2023-03-15T00:21:44;99428.09;;;-1.70;100.00
13420;BME280;6781;58.440;15.470;2023-03-15T00:24:11;99270.00;;;-2.80;100.00
13420;BME280;6781;58.440;15.470;2023-03-15T00:26:41;99439.03;;;-1.85;100.00
13420;BME280;6781;58.440;15.470;2023-03-15T00:29:08;99293.44;;;-2.56;100.00
13420;BME280;6781;58.440;15.470;2023-03-15T00:31:35;99374.53;;;-2.00;100.00
13420;BME280;6781;58.440;15.470;2023-03-15T00:34:02;99367.28;;;-2.08;100.00
13420;BME280;6781;58.440;15.470;2023-03-15T00:36:29;99479.72;;;-1.51;100.00
13420;BME280;6781;58.440;15.470;2023-03-15T00:38:59;99489.25;;;-1.56;100.00
13420;BME280;6781;58.440;15.470;2023-03-15T00:41:26;99311.13;;;-2.55;100.00
13420;BME280;6781;58.440;15.470;2023-03-15T00:43:53;99445.41;;;-1.77;100.00
13420;BME280;6781;58.440;15.470;2023-03-15T00:46:20;99225.28;;;-3.19;100.00
13420;BME280;6781;58.440;15.470;2023-03-15T00:48:48;99449.41;;;-1.90;100.00
13420;BME280;6781;58.440;15.470;2023-03-15T00:51:17;99512.00;;;-1.53;100.00
13420;BME280;6781;58.440;15.470;2023-03-15T00:53:45;99363.28;;;-2.49;100.00
13420;BME280;6781;58.440;15.470;2023-03-15T00:56:16;99520.66;;;-1.57;100.00
13420;BME280;6781;58.440;15.470;2023-03-15T00:58:44;99288.78;;;-3.03;100.00
13420;BME280;6781;58.440;15.470;2023-03-15T01:01:13;99527.53;;;-1.59;100.00
13420;BME280;6781;58.440;15.470;2023-03-15T01:03:41;99537.97;;;-1.65;100.00
13420;BME280;6781;58.440;15.470;2023-03-15T01:06:10;99397.22;;;-2.71;100.00
13420;BME280;6781;58.440;15.470;2023-03-15T01:08:37;99549.25;;;-1.71;100.00
13420;BME280;6781;58.440;15.470;2023-03-15T01:11:06;99549.66;;;-1.61;100.00
13420;BME280;6781;58.440;15.470;2023-03-15T01:13:35;99544.69;;;-1.64;100.00
13420;BME280;6781;58.440;15.470;2023-03-15T01:16:02;99520.16;;;-1.82;100.00
13420;BME280;6781;58.440;15.470;2023-03-15T01:18:30;99362.66;;;-2.92;100.00
13420;BME280;6781;58.440;15.470;2023-03-15T01:20:57;99555.16;;;-1.70;100.00
13420;BME280;6781;58.440;15.470;2023-03-15T01:23:24;99553.66;;;-1.74;100.00
13420;BME280;6781;58.440;15.470;2023-03-15T01:25:52;99477.00;;;-2.20;100.00
13420;BME280;6781;58.440;15.470;2023-03-15T01:28:19;99519.75;;;-2.11;100.00
13420;BME280;6781;58.440;15.470;2023-03-15T01:30:51;99567.53;;;-1.81;100.00
13420;BME280;6781;58.440;15.470;2023-03-15T01:33:18;99568.16;;;-1.76;100.00
13420;BME280;6781;58.440;15.470;2023-03-15T01:35:46;99570.09;;;-1.81;100.00
13420;BME280;6781;58.440;15.470;2023-03-15T01:38:13;99597.22;;;-1.82;100.00
13420;BME280;6781;58.440;15.470;2023-03-15T01:40:40;99597.13;;;-1.80;100.00
13420;BME280;6781;58.440;15.470;2023-03-15T01:43:14;99540.84;;;-2.09;100.00
13420;BME280;6781;58.440;15.470;2023-03-15T01:45:59;99591.44;;;-1.85;100.00
13420;BME280;6781;58.440;15.470;2023-03-15T01:48:31;99520.47;;;-2.46;100.00
13420;BME280;6781;58.440;15.470;2023-03-15T01:51:07;99615.06;;;-1.83;100.00
13420;BME280;6781;58.440;15.470;2023-03-15T01:53:37;99650.69;;;-1.85;100.00
13420;BME280;6781;58.440;15.470;2023-03-15T01:56:06;99573.97;;;-2.12;100.00
13420;BME280;6781;58.440;15.470;2023-03-15T01:58:34;99513.53;;;-2.62;100.00
13420;BME280;6781;58.440;15.470;2023-03-15T02:01:04;99640.59;;;-1.86;100.00
13420;BME280;6781;58.440;15.470;2023-03-15T02:03:34;99645.53;;;-1.83;100.00
13420;BME280;6781;58.440;15.470;2023-03-15T02:08:40;99642.38;;;-1.88;100.00
13420;BME280;6781;58.440;15.470;2023-03-15T02:11:10;99633.84;;;-2.06;100.00
13420;BME280;6781;58.440;15.470;2023-03-15T02:13:37;99609.41;;;-2.29;100.00
13420;BME280;6781;58.440;15.470;2023-03-15T02:16:06;99602.25;;;-2.40;100.00
13420;BME280;6781;58.440;15.470;2023-03-15T02:18:33;99640.69;;;-2.08;100.00
13420;BME280;6781;58.440;15.470;2023-03-15T02:21:09;99653.38;;;-2.08;100.00
13420;BME280;6781;58.440;15.470;2023-03-15T02:23:39;99680.09;;;-2.00;100.00
13420;BME280;6781;58.440;15.470;2023-03-15T02:26:16;99533.31;;;-2.90;100.00
13420;BME280;6781;58.440;15.470;2023-03-15T02:28:48;99689.25;;;-1.95;100.00
13420;BME280;6781;58.440;15.470;2023-03-15T02:31:18;99721.38;;;-1.94;100.00
13420;BME280;6781;58.440;15.470;2023-03-15T02:33:48;99718.72;;;-1.91;100.00
13420;BME280;6781;58.440;15.470;2023-03-15T02:36:17;99682.28;;;-2.11;100.00
13420;BME280;6781;58.440;15.470;2023-03-15T02:38:46;99644.56;;;-2.40;100.00
13420;BME280;6781;58.440;15.470;2023-03-15T02:41:17;99627.25;;;-2.51;100.00
13420;BME280;6781;58.440;15.470;2023-03-15T02:43:45;99526.91;;;-3.41;100.00
13420;BME280;6781;58.440;15.470;2023-03-15T02:46:16;99756.09;;;-1.95;100.00
13420;BME280;6781;58.440;15.470;2023-03-15T02:48:44;99535.38;;;-3.20;100.00
13420;BME280;6781;58.440;15.470;2023-03-15T02:51:17;99612.91;;;-2.72;100.00
13420;BME280;6781;58.440;15.470;2023-03-15T02:53:47;99644.75;;;-2.65;100.00
13420;BME280;6781;58.440;15.470;2023-03-15T02:56:15;99723.16;;;-2.17;100.00
13420;BME280;6781;58.440;15.470;2023-03-15T02:58:42;99720.94;;;-2.24;100.00
13420;BME280;6781;58.440;15.470;2023-03-15T03:01:11;99740.47;;;-2.06;100.00
13420;BME280;6781;58.440;15.470;2023-03-15T03:03:41;99715.09;;;-2.26;100.00
13420;BME280;6781;58.440;15.470;2023-03-15T03:06:10;99688.84;;;-2.47;100.00
13420;BME280;6781;58.440;15.470;2023-03-15T03:08:37;99769.75;;;-1.98;100.00
13420;BME280;6781;58.440;15.470;2023-03-15T03:11:05;99782.59;;;-2.01;100.00
13420;BME280;6781;58.440;15.470;2023-03-15T03:13:32;99708.41;;;-2.49;100.00
13420;BME280;6781;58.440;15.470;2023-03-15T03:16:02;99794.41;;;-2.00;100.00
13420;BME280;6781;58.440;15.470;2023-03-15T03:18:30;99743.25;;;-2.33;100.00
13420;BME280;6781;58.440;15.470;2023-03-15T03:21:02;99812.16;;;-2.00;100.00
13420;BME280;6781;58.440;15.470;2023-03-15T03:23:31;99614.53;;;-3.13;100.00
13420;BME280;6781;58.440;15.470;2023-03-15T03:25:59;99831.66;;;-2.00;100.00
13420;BME280;6781;58.440;15.470;2023-03-15T03:28:30;99691.97;;;-2.83;100.00
13420;BME280;6781;58.440;15.470;2023-03-15T03:30:57;99814.06;;;-2.05;100.00
13420;BME280;6781;58.440;15.470;2023-03-15T03:33:26;99859.78;;;-2.05;100.00
13420;BME280;6781;58.440;15.470;2023-03-15T03:36:01;99825.75;;;-2.01;100.00
13420;BME280;6781;58.440;15.470;2023-03-15T03:38:28;99670.50;;;-2.96;100.00
13420;BME280;6781;58.440;15.470;2023-03-15T03:40:55;99650.91;;;-3.14;100.00
13420;BME280;6781;58.440;15.470;2023-03-15T03:43:22;99772.66;;;-2.49;100.00
13420;BME280;6781;58.440;15.470;2023-03-15T03:45:49;99655.41;;;-3.21;100.00
13420;BME280;6781;58.440;15.470;2023-03-15T03:48:16;99678.03;;;-3.16;100.00
13420;BME280;6781;58.440;15.470;2023-03-15T03:50:43;99673.00;;;-3.40;100.00
13420;BME280;6781;58.440;15.470;2023-03-15T03:53:12;99688.06;;;-3.13;100.00
13420;BME280;6781;58.440;15.470;2023-03-15T03:55:39;99603.75;;;-3.62;100.00
13420;BME280;6781;58.440;15.470;2023-03-15T03:58:07;99840.53;;;-2.32;100.00
13420;BME280;6781;58.440;15.470;2023-03-15T04:00:34;99863.69;;;-2.18;100.00
13420;BME280;6781;58.440;15.470;2023-03-15T04:03:01;99890.91;;;-2.00;100.00
13420;BME280;6781;58.440;15.470;2023-03-15T04:05:28;99894.44;;;-2.04;100.00
13420;BME280;6781;58.440;15.470;2023-03-15T04:07:55;99792.19;;;-2.73;100.00
13420;BME280;6781;58.440;15.470;2023-03-15T04:10:24;99921.44;;;-2.01;100.00
13420;BME280;6781;58.440;15.470;2023-03-15T04:12:55;99807.94;;;-2.65;100.00
13420;BME280;6781;58.440;15.470;2023-03-15T04:15:22;99690.59;;;-3.58;100.00
13420;BME280;6781;58.440;15.470;2023-03-15T04:17:57;99765.53;;;-3.06;100.00
13420;BME280;6781;58.440;15.470;2023-03-15T04:20:25;99865.56;;;-2.45;100.00
13420;BME280;6781;58.440;15.470;2023-03-15T04:22:52;99942.72;;;-2.04;100.00
13420;BME280;6781;58.440;15.470;2023-03-15T04:25:21;99793.97;;;-2.98;100.00
13420;BME280;6781;58.440;15.470;2023-03-15T04:27:52;99963.09;;;-2.05;100.00
13420;BME280;6781;58.440;15.470;2023-03-15T04:30:24;99752.47;;;-3.42;100.00
13420;BME280;6781;58.440;15.470;2023-03-15T04:32:51;99680.41;;;-3.80;100.00
13420;BME280;6781;58.440;15.470;2023-03-15T04:35:24;99692.72;;;-3.95;100.00
13420;BME280;6781;58.440;15.470;2023-03-15T04:37:51;99815.84;;;-3.19;100.00
13420;BME280;6781;58.440;15.470;2023-03-15T04:40:19;99937.44;;;-2.21;100.00
13420;BME280;6781;58.440;15.470;2023-03-15T04:42:48;99938.66;;;-2.31;100.00
13420;BME280;6781;58.440;15.470;2023-03-15T04:45:17;99873.41;;;-2.74;100.00
13420;BME280;6781;58.440;15.470;2023-03-15T04:47:44;99742.66;;;-3.50;100.00
13420;BME280;6781;58.440;15.470;2023-03-15T04:50:11;99983.56;;;-2.10;100.00
13420;BME280;6781;58.440;15.470;2023-03-15T04:52:39;99870.94;;;-2.76;100.00
13420;BME280;6781;58.440;15.470;2023-03-15T04:55:07;99728.09;;;-3.68;100.00
13420;BME280;6781;58.440;15.470;2023-03-15T04:57:34;99969.78;;;-2.26;100.00
13420;BME280;6781;58.440;15.470;2023-03-15T05:00:01;99983.03;;;-2.18;100.00
13420;BME280;6781;58.440;15.470;2023-03-15T05:02:34;99713.59;;;-3.88;100.00
13420;BME280;6781;58.440;15.470;2023-03-15T05:05:04;99868.91;;;-3.14;100.00
13420;BME280;6781;58.440;15.470;2023-03-15T05:07:32;100007.41;;;-2.14;100.00
13420;BME280;6781;58.440;15.470;2023-03-15T05:10:00;99863.69;;;-3.10;100.00
13420;BME280;6781;58.440;15.470;2023-03-15T05:12:28;99984.84;;;-2.21;100.00
13420;BME280;6781;58.440;15.470;2023-03-15T05:14:55;99957.03;;;-2.48;100.00
13420;BME280;6781;58.440;15.470;2023-03-15T05:17:22;99952.00;;;-2.26;100.00
13420;BME280;6781;58.440;15.470;2023-03-15T05:19:50;100027.94;;;-1.97;100.00
13420;BME280;6781;58.440;15.470;2023-03-15T05:22:17;100001.78;;;-1.99;100.00
13420;BME280;6781;58.440;15.470;2023-03-15T05:24:50;99889.25;;;-2.68;100.00
13420;BME280;6781;58.440;15.470;2023-03-15T05:27:18;99784.94;;;-3.29;100.00
13420;BME280;6781;58.440;15.470;2023-03-15T05:29:45;99801.63;;;-3.23;100.00
13420;BME280;6781;58.440;15.470;2023-03-15T05:32:12;99829.13;;;-3.12;100.00
13420;BME280;6781;58.440;15.470;2023-03-15T05:34:39;99925.38;;;-2.61;100.00
13420;BME280;6781;58.440;15.470;2023-03-15T05:37:09;99833.00;;;-3.02;100.00
13420;BME280;6781;58.440;15.470;2023-03-15T05:39:37;99860.63;;;-2.95;100.00
13420;BME280;6781;58.440;15.470;2023-03-15T05:42:07;99767.09;;;-3.49;100.00
13420;BME280;6781;58.440;15.470;2023-03-15T05:44:34;99773.69;;;-3.45;100.00
13420;BME280;6781;58.440;15.470;2023-03-15T05:47:06;99870.03;;;-2.98;100.00
13420;BME280;6781;58.440;15.470;2023-03-15T05:49:33;100046.94;;;-1.83;100.00
13420;BME280;6781;58.440;15.470;2023-03-15T05:52:00;99780.75;;;-3.53;100.00
13420;BME280;6781;58.440;15.470;2023-03-15T05:54:29;99910.97;;;-2.60;100.00
13420;BME280;6781;58.440;15.470;2023-03-15T05:56:56;100060.53;;;-1.84;100.00
13420;BME280;6781;58.440;15.470;2023-03-15T05:59:23;100010.28;;;-2.00;100.00
13420;BME280;6781;58.440;15.470;2023-03-15T06:01:50;99881.31;;;-2.82;100.00
13420;BME280;6781;58.440;15.470;2023-03-15T06:04:17;99889.56;;;-2.77;100.00
13420;BME280;6781;58.440;15.470;2023-03-15T06:06:44;100050.91;;;-1.76;100.00
13420;BME280;6781;58.440;15.470;2023-03-15T06:09:11;100078.72;;;-1.73;100.00
13420;BME280;6781;58.440;15.470;2023-03-15T06:11:40;99974.84;;;-2.49;100.00
13420;BME280;6781;58.440;15.470;2023-03-15T06:14:07;100076.94;;;-1.71;100.00
13420;BME280;6781;58.440;15.470;2023-03-15T06:16:33;100095.50;;;-1.69;100.00
13420;BME280;6781;58.440;15.470;2023-03-15T06:19:00;99935.53;;;-2.61;100.00
13420;BME280;6781;58.440;15.470;2023-03-15T06:21:27;100045.63;;;-1.93;100.00
13420;BME280;6781;58.440;15.470;2023-03-15T06:23:54;100001.72;;;-2.20;100.00
13420;BME280;6781;58.440;15.470;2023-03-15T06:26:28;99815.41;;;-3.53;100.00
13420;BME280;6781;58.440;15.470;2023-03-15T06:29:03;99830.66;;;-3.32;100.00
13420;BME280;6781;58.440;15.470;2023-03-15T06:31:31;100023.09;;;-2.03;100.00
13420;BME280;6781;58.440;15.470;2023-03-15T06:33:58;100015.16;;;-2.17;100.00
13420;BME280;6781;58.440;15.470;2023-03-15T06:36:26;99845.50;;;-3.21;100.00
13420;BME280;6781;58.440;15.470;2023-03-15T06:38:53;100015.16;;;-2.17;100.00
13420;BME280;6781;58.440;15.470;2023-03-15T06:41:22;100113.63;;;-1.55;100.00
13420;BME280;6781;58.440;15.470;2023-03-15T06:43:49;100112.63;;;-1.51;100.00
13420;BME280;6781;58.440;15.470;2023-03-15T06:46:21;99853.44;;;-3.07;100.00
13420;BME280;6781;58.440;15.470;2023-03-15T06:48:48;100121.72;;;-1.45;100.00
13420;BME280;6781;58.440;15.470;2023-03-15T06:51:15;100095.59;;;-1.49;100.00
13420;BME280;6781;58.440;15.470;2023-03-15T06:53:43;99972.97;;;-2.21;100.00
13420;BME280;6781;58.440;15.470;2023-03-15T06:56:10;99877.69;;;-3.00;100.00
13420;BME280;6781;58.440;15.470;2023-03-15T06:58:37;99864.03;;;-2.96;100.00
13420;BME280;6781;58.440;15.470;2023-03-15T07:01:04;100091.22;;;-1.45;100.00
13420;BME280;6781;58.440;15.470;2023-03-15T07:03:33;100133.16;;;-1.34;100.00
13420;BME280;6781;58.440;15.470;2023-03-15T07:06:00;100112.81;;;-1.34;100.00
13420;BME280;6781;58.440;15.470;2023-03-15T07:08:27;99974.59;;;-1.97;100.00
13420;BME280;6781;58.440;15.470;2023-03-15T07:10:54;99821.38;;;-2.84;100.00
13420;BME280;6781;58.440;15.470;2023-03-15T07:13:22;99911.50;;;-2.29;100.00
13420;BME280;6781;58.440;15.470;2023-03-15T07:15:51;99912.09;;;-2.22;100.00
13420;BME280;6781;58.440;15.470;2023-03-15T07:18:18;100081.94;;;-1.24;100.00
13420;BME280;6781;58.440;15.470;2023-03-15T07:20:53;99866.38;;;-2.44;100.00
13420;BME280;6781;58.440;15.470;2023-03-15T07:23:21;99832.00;;;-2.75;100.00
13420;BME280;6781;58.440;15.470;2023-03-15T07:25:48;99809.16;;;-2.75;100.00
13420;BME280;6781;58.440;15.470;2023-03-15T07:28:15;100066.31;;;-1.15;100.00
13420;BME280;6781;58.440;15.470;2023-03-15T07:30:42;100007.22;;;-1.42;100.00
13420;BME280;6781;58.440;15.470;2023-03-15T07:33:17;100055.63;;;-1.23;100.00
13420;BME280;6781;58.440;15.470;2023-03-15T07:35:51;99743.97;;;-2.95;100.00
13420;BME280;6781;58.440;15.470;2023-03-15T07:38:20;99882.75;;;-2.08;100.00
13420;BME280;6781;58.440;15.470;2023-03-15T07:40:47;99997.63;;;-1.36;100.00
13420;BME280;6781;58.440;15.470;2023-03-15T07:43:23;100020.53;;;-1.15;100.00
13420;BME280;6781;58.440;15.470;2023-03-15T07:45:50;100050.59;;;-1.03;100.00
13420;BME280;6781;58.440;15.470;2023-03-15T07:48:17;99906.91;;;-1.76;100.00
13420;BME280;6781;58.440;15.470;2023-03-15T07:50:45;99817.50;;;-2.27;100.00
13420;BME280;6781;58.440;15.470;2023-03-15T07:53:13;99985.63;;;-1.12;100.00
13420;BME280;6781;58.440;15.470;2023-03-15T07:55:40;99857.38;;;-2.08;100.00
13420;BME280;6781;58.440;15.470;2023-03-15T07:58:08;100045.75;;;-0.89;100.00
13420;BME280;6781;58.440;15.470;2023-03-15T08:00:36;99875.31;;;-1.70;100.00
13420;BME280;6781;58.440;15.470;2023-03-15T08:03:03;99876.72;;;-1.63;100.00
13420;BME280;6781;58.440;15.470;2023-03-15T08:05:31;99734.94;;;-2.36;100.00
13420;BME280;6781;58.440;15.470;2023-03-15T08:07:59;99921.72;;;-1.24;100.00
13420;BME280;6781;58.440;15.470;2023-03-15T08:10:27;99923.00;;;-1.35;100.00
13420;BME280;6781;58.440;15.470;2023-03-15T08:12:54;99933.69;;;-1.06;100.00
13420;BME280;6781;58.440;15.470;2023-03-15T08:15:21;99815.91;;;-1.68;100.00
13420;BME280;6781;58.440;15.470;2023-03-15T08:17:48;99872.41;;;-1.41;100.00
13420;BME280;6781;58.440;15.470;2023-03-15T08:20:16;99966.22;;;-0.74;100.00
13420;BME280;6781;58.440;15.470;2023-03-15T08:22:46;99915.25;;;-1.11;100.00
13420;BME280;6781;58.440;15.470;2023-03-15T08:25:15;99957.19;;;-0.81;100.00
13420;BME280;6781;58.440;15.470;2023-03-15T08:27:45;99914.34;;;-0.90;100.00
13420;BME280;6781;58.440;15.470;2023-03-15T08:30:13;99968.75;;;-0.53;100.00
13420;BME280;6781;58.440;15.470;2023-03-15T08:32:41;99746.53;;;-1.88;100.00
13420;BME280;6781;58.440;15.470;2023-03-15T08:35:10;99956.66;;;-0.48;100.00
13420;BME280;6781;58.440;15.470;2023-03-15T08:37:38;99708.53;;;-1.91;100.00
13420;BME280;6781;58.440;15.470;2023-03-15T08:40:06;99936.75;;;-0.40;100.00
13420;BME280;6781;58.440;15.470;2023-03-15T08:42:34;99867.31;;;-0.62;100.00
13420;BME280;6781;58.440;15.470;2023-03-15T08:45:03;99804.56;;;-1.01;100.00
13420;BME280;6781;58.440;15.470;2023-03-15T08:47:31;99693.47;;;-1.57;100.00
13420;BME280;6781;58.440;15.470;2023-03-15T08:49:59;99909.72;;;-0.24;100.00
13420;BME280;6781;58.440;15.470;2023-03-15T08:52:28;99897.94;;;-0.26;100.00
13420;BME280;6781;58.440;15.470;2023-03-15T08:54:56;99722.75;;;-1.29;100.00
13420;BME280;6781;58.440;15.470;2023-03-15T08:57:23;99892.00;;;-0.27;100.00
13420;BME280;6781;58.440;15.470;2023-03-15T08:59:51;99804.72;;;-0.67;100.00
13420;BME280;6781;58.440;15.470;2023-03-15T09:02:21;99827.63;;;-0.67;100.00
13420;BME280;6781;58.440;15.470;2023-03-15T09:04:48;99807.59;;;-0.55;100.00
13420;BME280;6781;58.440;15.470;2023-03-15T09:07:15;99859.81;;;-0.28;100.00
13420;BME280;6781;58.440;15.470;2023-03-15T09:09:42;99866.19;;;-0.19;100.00
13420;BME280;6781;58.440;15.470;2023-03-15T09:12:13;99844.13;;;-0.02;100.00
13420;BME280;6781;58.440;15.470;2023-03-15T09:14:41;99765.22;;;-0.56;100.00
13420;BME280;6781;58.440;15.470;2023-03-15T09:17:09;99858.19;;;0.06;100.00
13420;BME280;6781;58.440;15.470;2023-03-15T09:19:38;99863.22;;;0.07;100.00
13420;BME280;6781;58.440;15.470;2023-03-15T09:22:06;99844.25;;;-0.05;100.00
13420;BME280;6781;58.440;15.470;2023-03-15T09:24:33;99880.63;;;0.16;100.00
13420;BME280;6781;58.440;15.470;2023-03-15T09:27:00;99858.19;;;0.23;100.00
13420;BME280;6781;58.440;15.470;2023-03-15T09:29:27;99745.91;;;-0.43;100.00
13420;BME280;6781;58.440;15.470;2023-03-15T09:31:54;99774.25;;;-0.15;100.00
13420;BME280;6781;58.440;15.470;2023-03-15T09:34:21;99841.34;;;0.38;100.00
13420;BME280;6781;58.440;15.470;2023-03-15T09:36:50;99805.28;;;0.28;100.00
13420;BME280;6781;58.440;15.470;2023-03-15T09:39:18;99837.72;;;0.42;100.00
13420;BME280;6781;58.440;15.470;2023-03-15T09:41:47;99825.66;;;0.45;100.00
13420;BME280;6781;58.440;15.470;2023-03-15T09:44:26;99710.19;;;-0.24;100.00
13420;BME280;6781;58.440;15.470;2023-03-15T09:47:04;99774.84;;;0.25;100.00
13420;BME280;6781;58.440;15.470;2023-03-15T09:49:40;99829.84;;;0.63;100.00
13420;BME280;6781;58.440;15.470;2023-03-15T09:52:25;99701.13;;;-0.13;100.00
13420;BME280;6781;58.440;15.470;2023-03-15T09:54:56;99750.47;;;0.19;100.00
13420;BME280;6781;58.440;15.470;2023-03-15T09:57:30;99834.72;;;0.68;100.00
13420;BME280;6781;58.440;15.470;2023-03-15T10:00:02;99816.53;;;0.74;100.00
13420;BME280;6781;58.440;15.470;2023-03-15T10:02:32;99662.72;;;-0.25;100.00
13420;BME280;6781;58.440;15.470;2023-03-15T10:05:04;99837.38;;;0.82;100.00
13420;BME280;6781;58.440;15.470;2023-03-15T10:07:34;99721.66;;;0.35;100.00
13420;BME280;6781;58.440;15.470;2023-03-15T10:10:02;99705.09;;;0.26;100.00
13420;BME280;6781;58.440;15.470;2023-03-15T10:12:32;99695.22;;;0.20;100.00
13420;BME280;6781;58.440;15.470;2023-03-15T10:15:21;99689.44;;;0.16;100.00
13420;BME280;6781;58.440;15.470;2023-03-15T10:20:59;99745.44;;;0.84;100.00
13420;BME280;6781;58.440;15.470;2023-03-15T10:23:37;99803.13;;;1.19;100.00
13420;BME280;6781;58.440;15.470;2023-03-15T10:26:07;99804.19;;;1.31;100.00
13420;BME280;6781;58.440;15.470;2023-03-15T10:28:38;99792.66;;;1.24;100.00
13420;BME280;6781;58.440;15.470;2023-03-15T10:31:12;99797.28;;;1.33;100.00
13420;BME280;6781;58.440;15.470;2023-03-15T10:33:39;99824.94;;;1.41;100.00
13420;BME280;6781;58.440;15.470;2023-03-15T10:36:13;99593.59;;;0.14;100.00
13420;BME280;6781;58.440;15.470;2023-03-15T10:38:43;99808.88;;;1.39;100.00
13420;BME280;6781;58.440;15.470;2023-03-15T10:41:12;99710.97;;;0.92;100.00
13420;BME280;6781;58.440;15.470;2023-03-15T10:43:40;99673.16;;;0.68;100.00
13420;BME280;6781;58.440;15.470;2023-03-15T10:46:09;99720.69;;;1.02;100.00
13420;BME280;6781;58.440;15.470;2023-03-15T10:48:37;99795.28;;;1.54;100.00
13420;BME280;6781;58.440;15.470;2023-03-15T10:51:06;99788.34;;;1.56;100.00
13420;BME280;6781;58.440;15.470;2023-03-15T10:53:51;99679.34;;;0.95;100.00
13420;BME280;6781;58.440;15.470;2023-03-15T10:56:22;99656.97;;;0.84;100.00
13420;BME280;6781;58.440;15.470;2023-03-15T10:58:52;99722.47;;;1.15;100.00
13420;BME280;6781;58.440;15.470;2023-03-15T11:01:25;99787.50;;;1.71;100.00
13420;BME280;6781;58.440;15.470;2023-03-15T11:04:09;99797.38;;;1.77;100.00
13420;BME280;6781;58.440;15.470;2023-03-15T11:06:41;99797.97;;;1.96;100.00
13420;BME280;6781;58.440;15.470;2023-03-15T11:09:12;99571.81;;;0.55;100.00
13420;BME280;6781;58.440;15.470;2023-03-15T11:11:53;99748.28;;;1.86;100.00
13420;BME280;6781;58.440;15.470;2023-03-15T11:14:21;99686.03;;;1.43;100.00
13420;BME280;6781;58.440;15.470;2023-03-15T11:16:50;99637.28;;;1.02;100.00
13420;BME280;6781;58.440;15.470;2023-03-15T11:19:19;99627.81;;;1.04;100.00
13420;BME280;6781;58.440;15.470;2023-03-15T11:21:49;99724.72;;;1.67;100.00
13420;BME280;6781;58.440;15.470;2023-03-15T11:24:23;99766.25;;;2.15;100.00
13420;BME280;6781;58.440;15.470;2023-03-15T11:26:51;99541.69;;;0.62;100.00
13420;BME280;6781;58.440;15.470;2023-03-15T11:29:22;99676.66;;;1.44;100.00
13420;BME280;6781;58.440;15.470;2023-03-15T11:31:54;99640.97;;;1.12;100.00
13420;BME280;6781;58.440;15.470;2023-03-15T11:34:30;99689.59;;;1.41;100.00
13420;BME280;6781;58.440;15.470;2023-03-15T11:37:04;99777.53;;;1.96;100.00
13420;BME280;6781;58.440;15.470;2023-03-15T11:39:38;99736.19;;;1.74;100.00
13420;BME280;6781;58.440;15.470;2023-03-15T11:42:13;99776.00;;;2.08;100.00
13420;BME280;6781;58.440;15.470;2023-03-15T11:44:44;99547.09;;;0.72;100.00
13420;BME280;6781;58.440;15.470;2023-03-15T11:47:17;99640.63;;;1.18;100.00
13420;BME280;6781;58.440;15.470;2023-03-15T11:49:49;99689.63;;;1.55;100.00
13420;BME280;6781;58.440;15.470;2023-03-15T11:52:17;99784.72;;;2.20;100.00
13420;BME280;6781;58.440;15.470;2023-03-15T11:54:47;99680.84;;;1.45;100.00
13420;BME280;6781;58.440;15.470;2023-03-15T11:57:35;99799.81;;;2.39;100.00
13420;BME280;6781;58.440;15.470;2023-03-15T12:00:25;99799.66;;;2.42;100.00
13420;BME280;6781;58.440;15.470;2023-03-15T12:03:30;99781.47;;;2.75;100.00
13420;BME280;6781;58.440;15.470;2023-03-15T12:06:03;99584.00;;;1.56;100.00
13420;BME280;6781;58.440;15.470;2023-03-15T12:08:42;99783.22;;;2.74;100.00
13420;BME280;6781;58.440;15.470;2023-03-15T12:11:13;99669.16;;;1.99;100.00
13420;BME280;6781;58.440;15.470;2023-03-15T12:14:03;99722.53;;;2.34;100.00
13420;BME280;6781;58.440;15.470;2023-03-15T12:16:31;99755.16;;;2.87;100.00
13420;BME280;6781;58.440;15.470;2023-03-15T12:19:09;99779.63;;;3.05;100.00
13420;BME280;6781;58.440;15.470;2023-03-15T12:21:38;99709.28;;;2.70;100.00
13420;BME280;6781;58.440;15.470;2023-03-15T12:24:14;99769.84;;;3.12;100.00
13420;BME280;6781;58.440;15.470;2023-03-15T12:26:46;99769.75;;;2.99;100.00
13420;BME280;6781;58.440;15.470;2023-03-15T12:29:17;99487.28;;;1.36;100.00
13420;BME280;6781;58.440;15.470;2023-03-15T12:31:55;99696.28;;;2.73;100.00
13420;BME280;6781;58.440;15.470;2023-03-15T12:34:27;99801.16;;;3.44;100.00
13420;BME280;6781;58.440;15.470;2023-03-15T12:36:59;99520.47;;;1.78;100.00
13420;BME280;6781;58.440;15.470;2023-03-15T12:39:50;99780.22;;;3.37;100.00
13420;BME280;6781;58.440;15.470;2023-03-15T12:43:01;99770.59;;;3.41;100.00
13420;BME280;6781;58.440;15.470;2023-03-15T12:45:46;99591.66;;;2.13;100.00
13420;BME280;6781;58.440;15.470;2023-03-15T12:48:22;99660.84;;;2.67;100.00
13420;BME280;6781;58.440;15.470;2023-03-15T12:50:58;99673.44;;;2.70;100.00
13420;BME280;6781;58.440;15.470;2023-03-15T12:53:38;99636.38;;;2.48;100.00
13420;BME280;6781;58.440;15.470;2023-03-15T12:59:12;99698.41;;;2.66;100.00
13420;BME280;6781;58.440;15.470;2023-03-15T13:01:43;99547.28;;;1.85;100.00
13420;BME280;6781;58.440;15.470;2023-03-15T13:04:11;99771.56;;;3.11;100.00
13420;BME280;6781;58.440;15.470;2023-03-15T13:06:51;99769.75;;;3.13;100.00
13420;BME280;6781;58.440;15.470;2023-03-15T13:09:36;99594.22;;;1.99;100.00
13420;BME280;6781;58.440;15.470;2023-03-15T13:12:11;99566.81;;;1.86;100.00
13420;BME280;6781;58.440;15.470;2023-03-15T13:14:48;99719.69;;;2.67;100.00
13420;BME280;6781;58.440;15.470;2023-03-15T13:17:28;99580.34;;;1.60;100.00